Historyczne dane pomiarowe

Dodano dane terminowe – wersja testowa.

Dane z okresu 1951-2019

Wersja bazy: 1.34 [2019-03-16, lista zmian], aktualizacja planowana na 2019-04-15

Dane meteo z obszaru Polski uzyskane na podstawie danych udostępnionych przez Instytut Meteorologii i Gospodarki Wodnej – Państwowy Instytut Badawczy.

 

Wybierz Datę:    

       

TemperaturaWilgotnośćWiatrCiśnienieOpadyŚniegCzas trwania zjawisk
 Stacja t tx tn tng RH VA  wxwx mslp ppp RRR   cm mm wxwxwxwxwxwxwx
1994-08-14 16.6 22.8 13.7 10.2 61.0- 4.3 0.3---- 0.0------------
1994-08-13 18.0 24.0 11.5 10.8 76.5- 5.7 0.3---- 0.2------------
1994-08-12 15.6 20.6 12.3 10.8 87.5- 7.3 0.0---- 2.8------------
1994-08-11 17.5 27.8 11.9 11.3 86.0- 6.3 0.3---- 4.3------------
1994-08-10 19.2 29.0 10.9 9.1 73.0- 3.3 0.3---- 0.0------------
1994-08-09 16.5 21.4 11.9 10.7 91.3- 7.3 0.0---- 9.0------------
1994-08-08 18.8 28.7 12.5 10.6 79.5- 7.0 1.0---- 9.0------------
1994-08-07 19.4 30.2 9.7 9.6 75.5- 5.7 0.7---- 0.0------------
1994-08-06 20.9 32.0 9.6 6.9 67.3- 2.7 0.3---- 0.0------------
1994-08-05 20.5 30.9 10.5 9.1 67.0- 2.0 0.3---- 0.0------------
1994-08-04 19.9 27.8 11.9 10.7 74.0- 4.7 0.3---- 0.0------------
1994-08-03 20.1 29.6 10.5 9.8 75.0- 4.7 0.3---- 0.0------------
1994-08-02 20.8 32.0 9.7 8.7 70.3- 1.7 0.0---- 0.0------------
1994-08-01 20.9 32.8 10.7 8.8 68.5- 3.3 0.0---- 0.2------------
1994-07-31 22.0 33.0 9.7 8.0 59.8- 0.7 0.3---- 0.0------------
1994-07-30 21.1 34.0 7.9 6.8 61.0- 1.0 0.0---- 0.0------------
1994-07-29 21.4 34.2 8.7 6.2 59.3- 0.3 0.3---- 0.0------------
1994-07-28 21.0 32.8 9.9 7.9 59.3- 0.3 0.3---- 0.0------------
1994-07-27 20.8 32.0 9.0 6.9 63.0- 1.3 0.3---- 0.0------------
1994-07-26 20.6 31.1 10.3 9.1 67.0- 1.0 0.3---- 0.0------------
1994-07-25 20.1 30.0 7.7 7.3 64.8- 3.3 0.3---- 0.0------------
1994-07-24 19.4 30.0 8.7 6.7 65.3- 1.7 1.0---- 0.0------------
1994-07-23 18.2 29.0 6.9 4.8 67.8- 2.0 0.7---- 0.0------------
1994-07-22 17.4 28.2 5.7 4.0 67.3- 0.7 0.7---- 0.0------------
1994-07-21 15.9 26.0 5.4 3.9 68.0- 0.0 0.3---- 0.0------------
1994-07-20 17.1 24.8 9.7 9.2 70.3- 3.0 1.0---- 0.0------------
1994-07-19 19.2 26.0 12.7 11.4 74.5- 4.3 0.3---- 0.0------------
1994-07-18 19.3 26.0 14.9 14.1 79.5- 7.0 0.0---- 1.2------------
1994-07-17 20.1 28.1 13.2 10.6 79.0- 6.7 0.0---- 2.5------------
1994-07-16 19.1 30.0 10.7 8.5 80.0- 3.7 0.3---- 3.8------------
1994-07-15 19.0 27.0 11.7 10.6 76.5- 4.7 0.0---- 0.0------------
1994-07-14 18.8 28.0 9.7 7.9 79.8- 5.7 0.7---- 0.3------------
1994-07-13 18.8 27.0 7.6 6.7 70.5- 4.7 0.7---- 0.0------------
1994-07-12 19.0 26.0 12.9 12.3 74.5- 3.3 1.0---- 0.0------------
1994-07-11 16.5 22.0 10.2 6.9 82.0- 7.0 2.0---- 0.0------------
1994-07-10 14.8 19.1 9.7 8.7 85.3- 7.7 0.3---- 0.1------------
1994-07-09 12.4 18.6 6.0 4.5 86.0- 5.7 0.0---- 3.8------------
1994-07-08 16.5 22.1 11.7 10.2 71.3- 4.3 0.7---- 0.0------------
1994-07-07 16.1 26.0 7.2 4.8 76.8- 6.7 0.3---- 5.4------------
1994-07-06 18.5 25.0 10.7 7.5 63.8- 1.0 0.7---- 0.0------------
1994-07-05 18.0 27.0 8.7 6.4 75.5- 6.7 0.3---- 0.4------------
1994-07-04 17.7 29.1 6.6 4.4 66.8- 2.0 0.0---- 0.0------------
1994-07-03 16.7 27.0 5.6 3.1 68.3- 0.7 0.3---- 0.0------------
1994-07-02 15.7 24.2 6.0 5.0 70.5- 0.3 1.0---- 0.0------------
1994-07-01 18.0 23.0 15.6 11.6 67.0- 4.0 1.0---- 0.0------------
1994-06-30 19.6 29.0 13.7 12.8 87.3- 5.7 0.3---- 0.3------------
1994-06-29 20.7 32.0 11.7 9.2 78.0- 1.3 0.3---- 0.0------------
1994-06-28 20.8 30.0 12.7 11.6 78.5- 4.3 0.3---- 0.0------------
1994-06-27 19.1 31.0 9.7 8.1 78.3- 4.0 0.3---- 15.6------------
1994-06-26 17.4 28.0 3.6 1.5 65.8- 0.7 1.3---- 0.0------------
1994-06-25 14.2 24.9 1.5 -1.0 65.8- 0.0 0.3---- 0.0------------
1994-06-24 13.1 21.9 5.1 0.9 66.5- 0.3 1.0---- 0.0------------
1994-06-23 15.6 22.5 10.7 9.6 72.0- 5.0 4.3---- 0.0------------
1994-06-22 16.3 27.0 5.5 3.1 72.3- 3.3 0.7---- 0.4------------
1994-06-21 14.2 21.0 5.6 5.0 71.5- 2.3 1.3---- 0.0------------
1994-06-20 15.7 22.7 6.6 6.0 77.3- 2.0 2.0---- 0.0------------
1994-06-19 15.8 25.0 8.7 8.0 74.8- 5.0 2.7---- 0.0------------
1994-06-18 11.8 19.1 3.1 0.5 81.5- 6.0 0.7---- 6.8------------
1994-06-17 11.0 15.2 7.5 4.4 83.5- 7.3 2.7---- 0.6------------
1994-06-16 11.8 18.5 4.6 2.1 75.5- 5.7 1.0---- 1.0------------
283.8 ms

 

Źródłem pochodzenia danych jest Instytut Meteorologii i Gospodarki Wodnej – Państwowy Instytut Badawczy. Dane Instytutu Meteorologii i Gospodarki Wodnej – Państwowego Instytutu Badawczego zostały przetworzone.

Dane źródłowe można odnaleźć na stronie https://dane.imgw.pl